createdAt,value
2023-02-18T00:04:38.506Z,1.08
2023-02-18T00:09:41.233Z,0.90
2023-02-18T00:14:44.226Z,1.15
2023-02-18T00:19:48.322Z,1.10
2023-02-18T00:24:51.618Z,0.90
2023-02-18T00:29:54.411Z,0.90
2023-02-18T00:34:58.494Z,1.00
2023-02-18T00:40:01.322Z,1.00
2023-02-18T00:45:04.056Z,0.70
2023-02-18T00:50:10.322Z,0.80
2023-02-18T00:55:13.184Z,0.80
2023-02-18T01:00:16.662Z,0.70
2023-02-18T01:05:21.424Z,0.60
2023-02-18T01:10:24.239Z,0.60
2023-02-18T01:15:27.193Z,0.88
2023-02-18T01:20:31.374Z,0.90
2023-02-18T01:25:34.863Z,1.10
2023-02-18T01:30:37.599Z,1.13
2023-02-18T01:35:42.218Z,0.82
2023-02-18T01:40:48.083Z,0.90
2023-02-18T01:45:57.859Z,0.75
2023-02-18T01:51:07.196Z,0.82
2023-02-18T01:56:15.604Z,0.95
2023-02-18T02:01:18.593Z,0.55
2023-02-18T02:06:24.589Z,0.70
2023-02-18T02:11:42.618Z,0.68
2023-02-18T02:16:51.552Z,0.85
2023-02-18T02:22:29.862Z,0.65
2023-02-18T02:28:03.394Z,0.80
2023-02-18T02:33:43.664Z,0.82
2023-02-18T02:38:59.339Z,0.65
2023-02-18T02:44:13.128Z,0.97
2023-02-18T02:49:25.795Z,1.02
2023-02-18T02:54:30.129Z,0.90
2023-02-18T02:59:34.462Z,1.80
2023-02-18T03:05:00.563Z,1.10
2023-02-18T03:10:19.074Z,0.90
2023-02-18T03:15:26.987Z,0.73
2023-02-18T03:20:36.389Z,0.70
2023-02-18T03:25:41.537Z,1.10
2023-02-18T03:30:48.985Z,0.60
2023-02-18T03:35:52.966Z,0.70
2023-02-18T03:40:57.522Z,0.63
2023-02-18T03:46:01.004Z,0.50
2023-02-18T03:51:03.822Z,0.50
2023-02-18T03:56:08.789Z,0.50
2023-02-18T04:01:11.742Z,0.50
2023-02-18T04:06:14.601Z,1.00
2023-02-18T04:11:19.029Z,0.40
2023-02-18T04:16:21.865Z,0.50
2023-02-18T04:21:24.653Z,0.43
2023-02-18T04:26:28.852Z,0.77
2023-02-18T04:31:31.720Z,0.77
2023-02-18T04:36:34.588Z,0.50
2023-02-18T04:41:38.663Z,0.82
2023-02-18T04:46:41.379Z,0.90
2023-02-18T04:51:44.205Z,0.65
2023-02-18T04:56:48.580Z,0.88
2023-02-18T05:01:51.624Z,0.93
2023-02-18T05:06:54.464Z,0.60
2023-02-18T05:11:58.623Z,0.70
2023-02-18T05:17:01.354Z,0.45
2023-02-18T05:22:04.102Z,0.90
2023-02-18T05:27:08.249Z,0.70
2023-02-18T05:32:11.065Z,2.25
2023-02-18T05:37:14.284Z,1.13
2023-02-18T05:42:18.380Z,0.43
2023-02-18T05:47:21.179Z,0.52
2023-02-18T05:52:24.284Z,0.50
2023-02-18T05:57:28.388Z,0.70
2023-02-18T06:02:31.276Z,0.60
2023-02-18T06:07:34.110Z,0.60
2023-02-18T06:12:38.273Z,0.90
2023-02-18T06:17:41.025Z,0.80
2023-02-18T06:22:43.790Z,1.10
2023-02-18T06:27:47.909Z,1.45
2023-02-18T06:32:50.660Z,1.48
2023-02-18T06:37:53.440Z,1.10
2023-02-18T06:42:57.545Z,0.93
2023-02-18T06:48:00.294Z,0.68
2023-02-18T06:53:03.125Z,0.90
2023-02-18T06:58:07.319Z,0.63
2023-02-18T07:03:12.115Z,0.60
2023-02-18T07:08:15.067Z,0.55
2023-02-18T07:13:19.329Z,0.40
2023-02-18T07:18:22.068Z,0.40
2023-02-18T07:23:24.845Z,0.40
2023-02-18T07:28:29.666Z,0.40
2023-02-18T07:33:32.669Z,0.30
2023-02-18T07:38:35.628Z,0.40
2023-02-18T07:43:39.790Z,0.40
2023-02-18T07:48:42.575Z,0.30
2023-02-18T07:53:45.971Z,0.43
2023-02-18T07:58:50.132Z,0.95
2023-02-18T08:03:53.746Z,0.40
2023-02-18T08:08:56.553Z,0.73
2023-02-18T08:14:00.834Z,0.55
2023-02-18T08:19:04.789Z,0.30
2023-02-18T08:24:09.060Z,0.55
2023-02-18T08:29:13.118Z,0.55
2023-02-18T08:34:15.903Z,3.03
2023-02-18T08:39:18.807Z,1.00
2023-02-18T08:44:22.948Z,0.60
2023-02-18T08:49:25.906Z,0.80
2023-02-18T08:54:29.389Z,1.50
2023-02-18T08:59:33.624Z,1.20
2023-02-18T09:04:36.357Z,2.00
2023-02-18T09:09:39.118Z,1.17
2023-02-18T09:14:43.279Z,1.70
2023-02-18T09:19:46.041Z,0.95
2023-02-18T09:24:48.795Z,1.30
2023-02-18T09:29:52.915Z,2.35
2023-02-18T09:34:55.608Z,2.75
2023-02-18T09:39:59.965Z,3.15
2023-02-18T09:45:08.037Z,3.63
2023-02-18T09:50:19.013Z,3.03
2023-02-18T09:55:24.202Z,1.23
2023-02-18T10:00:34.105Z,2.22
2023-02-18T10:05:38.368Z,1.65
2023-02-18T10:10:45.081Z,0.82
2023-02-18T10:15:51.437Z,0.90
2023-02-18T10:21:01.574Z,3.07
2023-02-18T10:26:08.096Z,3.33
2023-02-18T10:31:16.436Z,3.10
2023-02-18T10:36:25.648Z,3.70
2023-02-18T10:41:35.272Z,4.47
2023-02-18T10:46:52.173Z,1.60
2023-02-18T10:51:58.862Z,1.30
2023-02-18T10:57:04.719Z,1.60
2023-02-18T11:02:19.239Z,1.27
2023-02-18T11:07:24.986Z,1.70
2023-02-18T11:12:31.185Z,1.15
2023-02-18T11:17:37.870Z,1.87
2023-02-18T11:22:41.535Z,1.35
2023-02-18T11:27:47.382Z,1.60
2023-02-18T11:32:54.162Z,1.23
2023-02-18T11:37:59.655Z,1.58
2023-02-18T11:43:08.229Z,1.67
2023-02-18T11:48:18.360Z,1.90
2023-02-18T11:53:29.740Z,2.13
2023-02-18T11:58:39.434Z,3.22
2023-02-18T12:03:48.540Z,5.25
2023-02-18T12:08:55.180Z,4.28
2023-02-18T12:13:59.811Z,5.75
2023-02-18T12:19:22.991Z,3.58
2023-02-18T12:24:46.895Z,2.45
2023-02-18T12:30:26.742Z,3.50
2023-02-18T12:35:46.853Z,4.47
2023-02-18T12:41:13.650Z,5.25
2023-02-18T12:46:42.016Z,7.78
2023-02-18T12:52:08.611Z,3.45
2023-02-18T12:57:22.648Z,1.83
2023-02-18T13:02:45.898Z,1.85
2023-02-18T13:08:07.583Z,3.58
2023-02-18T13:13:14.254Z,3.42
2023-02-18T13:18:24.076Z,3.58
2023-02-18T13:23:32.082Z,1.85
2023-02-18T13:28:40.335Z,4.35
2023-02-18T13:33:51.020Z,4.57
2023-02-18T13:39:03.856Z,2.53
2023-02-18T13:44:31.394Z,4.38
2023-02-18T13:49:36.781Z,1.95
2023-02-18T13:54:45.360Z,2.13
2023-02-18T13:59:50.427Z,12.75
2023-02-18T14:04:54.739Z,0.95
2023-02-18T14:10:00.953Z,1.70
2023-02-18T14:15:23.279Z,0.90
2023-02-18T14:20:46.765Z,0.85
2023-02-18T14:25:57.165Z,1.10
2023-02-18T14:31:03.038Z,1.00
2023-02-18T14:36:19.744Z,1.02
2023-02-18T14:41:43.575Z,1.40
2023-02-18T14:47:02.635Z,2.50
2023-02-18T14:52:07.882Z,2.50
2023-02-18T14:57:17.321Z,1.20
2023-02-18T15:02:22.416Z,1.23
2023-02-18T15:07:25.220Z,1.30
2023-02-18T15:12:30.104Z,1.20
2023-02-18T15:17:33.179Z,1.50
2023-02-18T15:22:37.164Z,1.35
2023-02-18T15:27:45.767Z,1.92
2023-02-18T15:32:52.879Z,1.33
2023-02-18T15:43:19.913Z,1.33
2023-02-18T15:48:33.489Z,1.65
2023-02-18T15:53:41.240Z,1.52
2023-02-18T15:58:45.480Z,2.42
2023-02-18T16:03:48.367Z,1.48
2023-02-18T16:08:58.853Z,1.92
2023-02-18T16:14:03.216Z,1.75
2023-02-18T16:19:06.440Z,1.95
2023-02-18T16:24:25.795Z,1.92
2023-02-18T16:29:37.240Z,1.63
2023-02-18T16:34:39.947Z,2.60
2023-02-18T16:39:43.261Z,1.33
2023-02-18T16:44:48.115Z,1.75
2023-02-18T16:49:52.181Z,1.80
2023-02-18T16:54:55.434Z,2.08
2023-02-18T16:59:59.549Z,1.38
2023-02-18T17:05:03.959Z,1.30
2023-02-18T17:10:07.837Z,3.13
2023-02-18T17:15:27.909Z,1.52
2023-02-18T17:20:33.403Z,3.28
2023-02-18T17:25:40.661Z,1.90
2023-02-18T17:35:47.816Z,1.80
2023-02-18T17:40:51.043Z,2.63
2023-02-18T17:45:57.473Z,1.60
2023-02-18T17:51:00.418Z,2.30
2023-02-18T17:56:03.272Z,2.55
2023-02-18T18:01:07.523Z,2.50
2023-02-18T18:06:17.119Z,1.90
2023-02-18T18:11:21.831Z,2.00
2023-02-18T18:16:26.317Z,2.25
2023-02-18T18:21:32.141Z,2.10
2023-02-18T18:26:35.024Z,2.17
2023-02-18T18:31:39.351Z,2.75
2023-02-18T18:36:42.384Z,2.83
2023-02-18T18:41:45.095Z,2.83
2023-02-18T18:46:49.181Z,4.05
2023-02-18T18:51:52.618Z,3.45
2023-02-18T18:56:55.465Z,2.58
2023-02-18T19:01:59.777Z,3.90
2023-02-18T19:07:02.650Z,4.00
2023-02-18T19:12:05.899Z,4.82
2023-02-18T19:17:10.139Z,2.92
2023-02-18T19:22:13.108Z,3.20
2023-02-18T19:27:17.248Z,2.75
2023-02-18T19:32:21.448Z,3.45
2023-02-18T19:37:24.706Z,3.25
2023-02-18T19:42:27.848Z,2.55
2023-02-18T19:47:32.215Z,2.92
2023-02-18T19:52:35.162Z,3.20
2023-02-18T19:57:38.487Z,3.30
2023-02-18T20:02:43.325Z,3.30
2023-02-18T20:07:47.083Z,2.63
2023-02-18T20:12:53.527Z,2.88
2023-02-18T20:17:57.655Z,3.37
2023-02-18T20:23:00.508Z,2.80
2023-02-18T20:28:03.396Z,2.67
2023-02-18T20:33:07.554Z,2.95
2023-02-18T20:38:10.270Z,2.95
2023-02-18T20:43:13.093Z,2.70
2023-02-18T20:48:17.245Z,2.75
2023-02-18T20:53:20.061Z,3.20
2023-02-18T20:58:22.980Z,4.28
2023-02-18T21:03:27.873Z,3.42
2023-02-18T21:08:31.642Z,5.07
2023-02-18T21:13:36.057Z,4.55
2023-02-18T21:18:40.432Z,4.28
2023-02-18T21:23:43.316Z,6.95
2023-02-18T21:28:48.651Z,4.60
2023-02-18T21:33:53.199Z,3.20
2023-02-18T21:38:58.306Z,3.33
2023-02-18T21:44:01.123Z,3.03
2023-02-18T21:49:10.350Z,3.10
2023-02-18T21:54:13.138Z,2.35
2023-02-18T21:59:16.696Z,3.53
2023-02-18T22:04:21.115Z,3.03
2023-02-18T22:09:23.933Z,3.38
2023-02-18T22:14:26.799Z,3.97
2023-02-18T22:19:31.448Z,3.50
2023-02-18T22:24:34.568Z,3.75
2023-02-18T22:29:37.367Z,4.18
2023-02-18T22:34:41.711Z,5.40
2023-02-18T22:39:44.515Z,4.13
2023-02-18T22:44:47.222Z,4.35
2023-02-18T22:49:51.431Z,4.32
2023-02-18T22:54:55.066Z,5.00
2023-02-18T22:59:57.956Z,5.38
2023-02-18T23:05:02.131Z,4.97
2023-02-18T23:10:05.688Z,6.22
2023-02-18T23:15:09.257Z,5.35
2023-02-18T23:20:13.366Z,4.60
2023-02-18T23:25:16.228Z,4.68
2023-02-18T23:30:19.388Z,4.68
2023-02-18T23:35:23.545Z,4.20
2023-02-18T23:40:26.260Z,4.72
2023-02-18T23:45:29.003Z,4.78
2023-02-18T23:50:33.191Z,4.25
2023-02-18T23:55:35.937Z,3.95
